sensor_id;sensor_type;location;lat;lon;timestamp;temperature;humidity
42147;DHT22;27815;43.410;11.852;2023-07-31T00:00:27;22.10;58.80
42147;DHT22;27815;43.410;11.852;2023-07-31T00:04:32;22.10;58.80
42147;DHT22;27815;43.410;11.852;2023-07-31T00:08:35;22.00;58.90
42147;DHT22;27815;43.410;11.852;2023-07-31T00:12:44;22.00;58.90
42147;DHT22;27815;43.410;11.852;2023-07-31T00:16:50;22.00;59.20
42147;DHT22;27815;43.410;11.852;2023-07-31T00:20:55;22.00;59.20
42147;DHT22;27815;43.410;11.852;2023-07-31T00:24:58;21.80;59.40
42147;DHT22;27815;43.410;11.852;2023-07-31T00:29:06;21.80;59.50
42147;DHT22;27815;43.410;11.852;2023-07-31T00:33:09;21.70;59.50
42147;DHT22;27815;43.410;11.852;2023-07-31T00:37:12;21.70;59.60
42147;DHT22;27815;43.410;11.852;2023-07-31T00:41:17;21.70;59.70
42147;DHT22;27815;43.410;11.852;2023-07-31T00:45:27;21.60;59.80
42147;DHT22;27815;43.410;11.852;2023-07-31T00:49:34;21.60;59.90
42147;DHT22;27815;43.410;11.852;2023-07-31T00:53:38;21.60;60.20
42147;DHT22;27815;43.410;11.852;2023-07-31T00:57:45;21.50;60.10
42147;DHT22;27815;43.410;11.852;2023-07-31T01:01:49;21.50;60.20
42147;DHT22;27815;43.410;11.852;2023-07-31T01:06:11;21.40;60.30
42147;DHT22;27815;43.410;11.852;2023-07-31T01:10:20;21.30;60.70
42147;DHT22;27815;43.410;11.852;2023-07-31T01:14:27;21.20;60.70
42147;DHT22;27815;43.410;11.852;2023-07-31T01:18:33;21.20;60.70
42147;DHT22;27815;43.410;11.852;2023-07-31T01:27:59;21.10;61.00
42147;DHT22;27815;43.410;11.852;2023-07-31T01:32:07;21.10;61.10
42147;DHT22;27815;43.410;11.852;2023-07-31T01:36:16;21.10;60.90
42147;DHT22;27815;43.410;11.852;2023-07-31T01:40:22;21.00;61.10
42147;DHT22;27815;43.410;11.852;2023-07-31T01:44:26;20.90;61.50
42147;DHT22;27815;43.410;11.852;2023-07-31T01:48:33;20.80;61.40
42147;DHT22;27815;43.410;11.852;2023-07-31T01:52:54;20.80;61.60
42147;DHT22;27815;43.410;11.852;2023-07-31T01:57:14;20.70;61.90
42147;DHT22;27815;43.410;11.852;2023-07-31T02:01:49;20.60;62.20
42147;DHT22;27815;43.410;11.852;2023-07-31T02:05:56;20.50;62.10
42147;DHT22;27815;43.410;11.852;2023-07-31T02:10:00;20.60;62.20
42147;DHT22;27815;43.410;11.852;2023-07-31T02:14:05;20.60;62.30
42147;DHT22;27815;43.410;11.852;2023-07-31T02:18:13;20.60;62.60
42147;DHT22;27815;43.410;11.852;2023-07-31T02:22:17;20.70;62.80
42147;DHT22;27815;43.410;11.852;2023-07-31T02:26:22;20.70;62.70
42147;DHT22;27815;43.410;11.852;2023-07-31T02:30:25;20.70;62.80
42147;DHT22;27815;43.410;11.852;2023-07-31T02:34:29;20.80;62.90
42147;DHT22;27815;43.410;11.852;2023-07-31T02:38:37;21.00;62.90
42147;DHT22;27815;43.410;11.852;2023-07-31T02:42:42;21.10;63.30
42147;DHT22;27815;43.410;11.852;2023-07-31T02:46:47;21.20;63.10
42147;DHT22;27815;43.410;11.852;2023-07-31T02:50:53;21.20;63.30
42147;DHT22;27815;43.410;11.852;2023-07-31T02:54:58;21.10;63.50
42147;DHT22;27815;43.410;11.852;2023-07-31T02:59:01;21.10;63.80
42147;DHT22;27815;43.410;11.852;2023-07-31T03:03:05;21.30;63.90
42147;DHT22;27815;43.410;11.852;2023-07-31T03:07:15;21.20;63.90
42147;DHT22;27815;43.410;11.852;2023-07-31T03:11:18;21.30;64.10
42147;DHT22;27815;43.410;11.852;2023-07-31T03:15:26;21.20;63.80
42147;DHT22;27815;43.410;11.852;2023-07-31T03:19:32;21.10;64.10
42147;DHT22;27815;43.410;11.852;2023-07-31T03:23:38;20.90;64.30
42147;DHT22;27815;43.410;11.852;2023-07-31T03:27:44;20.80;64.30
42147;DHT22;27815;43.410;11.852;2023-07-31T03:31:47;20.80;64.30
42147;DHT22;27815;43.410;11.852;2023-07-31T03:35:54;20.60;64.40
42147;DHT22;27815;43.410;11.852;2023-07-31T03:39:59;20.60;64.40
42147;DHT22;27815;43.410;11.852;2023-07-31T03:44:05;20.50;64.20
42147;DHT22;27815;43.410;11.852;2023-07-31T03:48:09;20.50;64.30
42147;DHT22;27815;43.410;11.852;2023-07-31T03:52:16;20.50;64.40
42147;DHT22;27815;43.410;11.852;2023-07-31T03:56:22;20.40;64.60
42147;DHT22;27815;43.410;11.852;2023-07-31T04:00:28;20.40;64.50
42147;DHT22;27815;43.410;11.852;2023-07-31T04:04:31;20.30;64.70
42147;DHT22;27815;43.410;11.852;2023-07-31T04:08:37;20.20;64.50
42147;DHT22;27815;43.410;11.852;2023-07-31T04:12:44;20.10;64.70
42147;DHT22;27815;43.410;11.852;2023-07-31T04:16:48;20.00;65.20
42147;DHT22;27815;43.410;11.852;2023-07-31T04:20:54;19.90;65.20
42147;DHT22;27815;43.410;11.852;2023-07-31T04:24:59;19.90;65.20
42147;DHT22;27815;43.410;11.852;2023-07-31T04:29:05;19.80;65.30
42147;DHT22;27815;43.410;11.852;2023-07-31T04:33:09;19.80;65.40
42147;DHT22;27815;43.410;11.852;2023-07-31T04:37:12;19.80;65.60
42147;DHT22;27815;43.410;11.852;2023-07-31T04:41:21;19.80;65.70
42147;DHT22;27815;43.410;11.852;2023-07-31T04:45:24;19.90;65.80
42147;DHT22;27815;43.410;11.852;2023-07-31T04:49:31;19.90;65.70
42147;DHT22;27815;43.410;11.852;2023-07-31T04:53:37;19.80;65.90
42147;DHT22;27815;43.410;11.852;2023-07-31T04:57:40;19.80;66.60
42147;DHT22;27815;43.410;11.852;2023-07-31T05:01:47;19.80;66.60
42147;DHT22;27815;43.410;11.852;2023-07-31T05:05:55;19.80;66.70
42147;DHT22;27815;43.410;11.852;2023-07-31T05:09:58;19.90;66.70
42147;DHT22;27815;43.410;11.852;2023-07-31T05:14:04;19.90;66.50
42147;DHT22;27815;43.410;11.852;2023-07-31T05:18:07;20.00;66.70
42147;DHT22;27815;43.410;11.852;2023-07-31T05:22:17;20.00;66.70
42147;DHT22;27815;43.410;11.852;2023-07-31T05:26:20;20.10;67.00
42147;DHT22;27815;43.410;11.852;2023-07-31T05:30:27;20.20;67.00
42147;DHT22;27815;43.410;11.852;2023-07-31T05:34:32;20.50;67.40
42147;DHT22;27815;43.410;11.852;2023-07-31T05:38:36;20.90;66.90
42147;DHT22;27815;43.410;11.852;2023-07-31T05:42:41;21.20;66.70
42147;DHT22;27815;43.410;11.852;2023-07-31T05:46:47;21.50;66.50
42147;DHT22;27815;43.410;11.852;2023-07-31T05:50:58;21.80;66.20
42147;DHT22;27815;43.410;11.852;2023-07-31T05:55:04;22.00;66.10
42147;DHT22;27815;43.410;11.852;2023-07-31T05:59:11;22.30;65.60
42147;DHT22;27815;43.410;11.852;2023-07-31T06:03:19;22.60;65.20
42147;DHT22;27815;43.410;11.852;2023-07-31T06:07:28;22.80;64.90
42147;DHT22;27815;43.410;11.852;2023-07-31T06:11:33;23.00;64.40
42147;DHT22;27815;43.410;11.852;2023-07-31T06:15:40;23.30;64.00
42147;DHT22;27815;43.410;11.852;2023-07-31T06:19:45;23.50;63.90
42147;DHT22;27815;43.410;11.852;2023-07-31T06:23:51;23.60;63.50
42147;DHT22;27815;43.410;11.852;2023-07-31T06:28:05;23.90;63.00
42147;DHT22;27815;43.410;11.852;2023-07-31T06:32:11;24.20;62.40
42147;DHT22;27815;43.410;11.852;2023-07-31T06:36:24;24.40;62.00
42147;DHT22;27815;43.410;11.852;2023-07-31T06:40:28;24.60;61.60
42147;DHT22;27815;43.410;11.852;2023-07-31T06:44:34;24.80;61.10
42147;DHT22;27815;43.410;11.852;2023-07-31T06:48:36;25.00;60.50
42147;DHT22;27815;43.410;11.852;2023-07-31T06:52:41;25.20;60.30
42147;DHT22;27815;43.410;11.852;2023-07-31T06:56:44;25.40;59.70
42147;DHT22;27815;43.410;11.852;2023-07-31T07:00:47;25.60;59.20
42147;DHT22;27815;43.410;11.852;2023-07-31T07:04:52;25.80;58.80
42147;DHT22;27815;43.410;11.852;2023-07-31T07:08:55;25.90;58.30
42147;DHT22;27815;43.410;11.852;2023-07-31T07:13:00;26.10;58.10
42147;DHT22;27815;43.410;11.852;2023-07-31T07:17:05;26.30;57.60
42147;DHT22;27815;43.410;11.852;2023-07-31T07:21:08;26.50;57.30
42147;DHT22;27815;43.410;11.852;2023-07-31T07:25:12;26.70;57.00
42147;DHT22;27815;43.410;11.852;2023-07-31T07:29:17;27.00;56.30
42147;DHT22;27815;43.410;11.852;2023-07-31T07:33:21;27.40;55.60
42147;DHT22;27815;43.410;11.852;2023-07-31T07:37:26;27.50;55.30
42147;DHT22;27815;43.410;11.852;2023-07-31T07:41:28;27.80;54.80
42147;DHT22;27815;43.410;11.852;2023-07-31T07:45:33;28.00;54.00
42147;DHT22;27815;43.410;11.852;2023-07-31T07:49:36;28.20;53.70
42147;DHT22;27815;43.410;11.852;2023-07-31T07:53:40;28.50;53.10
42147;DHT22;27815;43.410;11.852;2023-07-31T07:57:42;28.70;52.40
42147;DHT22;27815;43.410;11.852;2023-07-31T08:01:47;28.90;51.50
42147;DHT22;27815;43.410;11.852;2023-07-31T08:05:50;29.10;50.50
42147;DHT22;27815;43.410;11.852;2023-07-31T08:09:53;29.20;49.30
42147;DHT22;27815;43.410;11.852;2023-07-31T08:13:58;29.20;48.10
42147;DHT22;27815;43.410;11.852;2023-07-31T08:18:01;29.30;48.10
42147;DHT22;27815;43.410;11.852;2023-07-31T08:22:07;29.60;47.40
42147;DHT22;27815;43.410;11.852;2023-07-31T08:26:17;30.00;46.60
42147;DHT22;27815;43.410;11.852;2023-07-31T08:30:21;30.00;45.60
42147;DHT22;27815;43.410;11.852;2023-07-31T08:34:25;29.90;45.20
42147;DHT22;27815;43.410;11.852;2023-07-31T08:38:29;29.90;45.40
42147;DHT22;27815;43.410;11.852;2023-07-31T08:42:47;30.00;44.70
42147;DHT22;27815;43.410;11.852;2023-07-31T08:46:52;29.90;44.60
42147;DHT22;27815;43.410;11.852;2023-07-31T08:51:00;30.10;44.40
42147;DHT22;27815;43.410;11.852;2023-07-31T08:55:04;30.20;43.70
42147;DHT22;27815;43.410;11.852;2023-07-31T08:59:08;30.20;43.30
42147;DHT22;27815;43.410;11.852;2023-07-31T09:03:17;30.40;43.00
42147;DHT22;27815;43.410;11.852;2023-07-31T09:07:21;30.40;41.10
42147;DHT22;27815;43.410;11.852;2023-07-31T09:11:25;30.50;41.10
42147;DHT22;27815;43.410;11.852;2023-07-31T09:15:28;30.50;40.30
42147;DHT22;27815;43.410;11.852;2023-07-31T09:19:40;30.50;40.20
42147;DHT22;27815;43.410;11.852;2023-07-31T09:23:44;30.50;39.90
42147;DHT22;27815;43.410;11.852;2023-07-31T09:28:07;30.70;39.40
42147;DHT22;27815;43.410;11.852;2023-07-31T09:32:16;30.60;39.40
42147;DHT22;27815;43.410;11.852;2023-07-31T09:36:22;30.70;39.50
42147;DHT22;27815;43.410;11.852;2023-07-31T09:40:38;30.70;39.80
42147;DHT22;27815;43.410;11.852;2023-07-31T09:44:41;30.80;39.80
42147;DHT22;27815;43.410;11.852;2023-07-31T09:48:44;31.00;39.70
42147;DHT22;27815;43.410;11.852;2023-07-31T09:52:52;31.00;39.00
42147;DHT22;27815;43.410;11.852;2023-07-31T09:56:57;30.90;38.60
42147;DHT22;27815;43.410;11.852;2023-07-31T10:01:02;31.00;38.10
42147;DHT22;27815;43.410;11.852;2023-07-31T10:05:06;31.00;38.30
42147;DHT22;27815;43.410;11.852;2023-07-31T10:09:12;31.10;36.90
42147;DHT22;27815;43.410;11.852;2023-07-31T10:13:20;31.10;36.90
42147;DHT22;27815;43.410;11.852;2023-07-31T10:17:26;31.20;36.50
42147;DHT22;27815;43.410;11.852;2023-07-31T10:21:30;31.10;36.30
42147;DHT22;27815;43.410;11.852;2023-07-31T10:25:34;31.30;35.70
42147;DHT22;27815;43.410;11.852;2023-07-31T10:29:39;31.20;35.50
42147;DHT22;27815;43.410;11.852;2023-07-31T10:33:46;31.20;35.40
42147;DHT22;27815;43.410;11.852;2023-07-31T10:37:49;31.20;35.40
42147;DHT22;27815;43.410;11.852;2023-07-31T10:41:52;31.50;35.60
42147;DHT22;27815;43.410;11.852;2023-07-31T10:45:55;31.50;35.50
42147;DHT22;27815;43.410;11.852;2023-07-31T10:50:18;31.80;35.10
42147;DHT22;27815;43.410;11.852;2023-07-31T10:54:27;31.90;34.70
42147;DHT22;27815;43.410;11.852;2023-07-31T10:58:30;31.80;34.70
42147;DHT22;27815;43.410;11.852;2023-07-31T11:02:36;31.90;35.00
42147;DHT22;27815;43.410;11.852;2023-07-31T11:06:39;31.90;35.00
42147;DHT22;27815;43.410;11.852;2023-07-31T11:10:43;32.20;34.90
42147;DHT22;27815;43.410;11.852;2023-07-31T11:14:55;32.30;34.50
42147;DHT22;27815;43.410;11.852;2023-07-31T11:18:58;32.50;34.50
42147;DHT22;27815;43.410;11.852;2023-07-31T11:23:07;32.50;33.60
42147;DHT22;27815;43.410;11.852;2023-07-31T11:27:14;32.30;33.50
42147;DHT22;27815;43.410;11.852;2023-07-31T11:31:19;32.30;33.60
42147;DHT22;27815;43.410;11.852;2023-07-31T11:35:23;32.40;33.50
42147;DHT22;27815;43.410;11.852;2023-07-31T11:39:26;32.40;33.10
42147;DHT22;27815;43.410;11.852;2023-07-31T11:43:31;32.50;33.30
42147;DHT22;27815;43.410;11.852;2023-07-31T11:47:36;32.90;33.20
42147;DHT22;27815;43.410;11.852;2023-07-31T11:51:50;33.00;33.30
42147;DHT22;27815;43.410;11.852;2023-07-31T11:56:00;32.90;32.70
42147;DHT22;27815;43.410;11.852;2023-07-31T12:00:06;32.80;33.10
42147;DHT22;27815;43.410;11.852;2023-07-31T12:04:15;32.90;33.20
42147;DHT22;27815;43.410;11.852;2023-07-31T12:08:25;33.00;33.10
42147;DHT22;27815;43.410;11.852;2023-07-31T12:12:32;33.00;32.20
42147;DHT22;27815;43.410;11.852;2023-07-31T12:16:52;33.00;32.20
42147;DHT22;27815;43.410;11.852;2023-07-31T12:21:20;33.00;31.50
42147;DHT22;27815;43.410;11.852;2023-07-31T12:25:29;33.00;31.10
42147;DHT22;27815;43.410;11.852;2023-07-31T12:29:34;33.00;30.70
42147;DHT22;27815;43.410;11.852;2023-07-31T12:33:44;33.00;30.90
42147;DHT22;27815;43.410;11.852;2023-07-31T12:37:47;33.20;31.10
42147;DHT22;27815;43.410;11.852;2023-07-31T12:41:53;33.50;30.90
42147;DHT22;27815;43.410;11.852;2023-07-31T12:46:06;33.50;30.70
42147;DHT22;27815;43.410;11.852;2023-07-31T12:50:16;33.70;30.80
42147;DHT22;27815;43.410;11.852;2023-07-31T12:54:45;33.80;30.10
42147;DHT22;27815;43.410;11.852;2023-07-31T12:58:53;33.90;30.10
42147;DHT22;27815;43.410;11.852;2023-07-31T13:03:06;34.00;30.20
42147;DHT22;27815;43.410;11.852;2023-07-31T13:07:13;34.10;30.30
42147;DHT22;27815;43.410;11.852;2023-07-31T13:11:18;34.20;30.30
42147;DHT22;27815;43.410;11.852;2023-07-31T13:15:22;34.20;30.20
42147;DHT22;27815;43.410;11.852;2023-07-31T13:19:25;34.40;30.10
42147;DHT22;27815;43.410;11.852;2023-07-31T13:23:31;34.40;29.50
42147;DHT22;27815;43.410;11.852;2023-07-31T13:27:42;34.40;28.60
42147;DHT22;27815;43.410;11.852;2023-07-31T13:31:46;34.30;28.30
42147;DHT22;27815;43.410;11.852;2023-07-31T13:35:53;34.20;28.00
42147;DHT22;27815;43.410;11.852;2023-07-31T13:40:04;34.20;28.10
42147;DHT22;27815;43.410;11.852;2023-07-31T13:44:08;34.30;27.80
42147;DHT22;27815;43.410;11.852;2023-07-31T13:48:11;34.40;28.10
42147;DHT22;27815;43.410;11.852;2023-07-31T13:52:15;34.70;28.20
42147;DHT22;27815;43.410;11.852;2023-07-31T13:56:18;34.80;28.40
42147;DHT22;27815;43.410;11.852;2023-07-31T14:00:21;34.70;27.90
42147;DHT22;27815;43.410;11.852;2023-07-31T14:04:24;34.70;28.20
42147;DHT22;27815;43.410;11.852;2023-07-31T14:08:27;34.90;28.20
42147;DHT22;27815;43.410;11.852;2023-07-31T14:12:30;35.00;28.20
42147;DHT22;27815;43.410;11.852;2023-07-31T14:16:44;35.10;28.30
42147;DHT22;27815;43.410;11.852;2023-07-31T14:20:47;35.20;28.40
42147;DHT22;27815;43.410;11.852;2023-07-31T14:24:50;35.20;28.30
42147;DHT22;27815;43.410;11.852;2023-07-31T14:28:52;35.20;28.30
42147;DHT22;27815;43.410;11.852;2023-07-31T14:32:55;35.40;28.10
42147;DHT22;27815;43.410;11.852;2023-07-31T14:37:00;35.50;28.00
42147;DHT22;27815;43.410;11.852;2023-07-31T14:41:03;35.60;28.00
42147;DHT22;27815;43.410;11.852;2023-07-31T14:45:07;35.60;27.80
42147;DHT22;27815;43.410;11.852;2023-07-31T14:49:11;35.50;27.60
42147;DHT22;27815;43.410;11.852;2023-07-31T14:53:14;35.50;27.50
42147;DHT22;27815;43.410;11.852;2023-07-31T14:57:17;35.50;27.40
42147;DHT22;27815;43.410;11.852;2023-07-31T15:01:20;35.50;27.10
42147;DHT22;27815;43.410;11.852;2023-07-31T15:05:23;35.50;27.30
42147;DHT22;27815;43.410;11.852;2023-07-31T15:09:26;35.50;27.40
42147;DHT22;27815;43.410;11.852;2023-07-31T15:13:29;35.40;27.60
42147;DHT22;27815;43.410;11.852;2023-07-31T15:17:32;35.50;27.80
42147;DHT22;27815;43.410;11.852;2023-07-31T15:21:35;35.60;27.80
42147;DHT22;27815;43.410;11.852;2023-07-31T15:25:38;35.50;27.70
42147;DHT22;27815;43.410;11.852;2023-07-31T15:29:41;35.40;28.20
42147;DHT22;27815;43.410;11.852;2023-07-31T15:33:45;35.40;28.30
42147;DHT22;27815;43.410;11.852;2023-07-31T15:37:49;35.60;28.30
42147;DHT22;27815;43.410;11.852;2023-07-31T15:41:52;35.70;28.20
42147;DHT22;27815;43.410;11.852;2023-07-31T15:45:55;35.60;28.40
42147;DHT22;27815;43.410;11.852;2023-07-31T15:49:58;35.40;28.50
42147;DHT22;27815;43.410;11.852;2023-07-31T15:54:00;35.20;28.60
42147;DHT22;27815;43.410;11.852;2023-07-31T15:58:03;35.20;28.80
42147;DHT22;27815;43.410;11.852;2023-07-31T16:02:08;35.20;28.90
42147;DHT22;27815;43.410;11.852;2023-07-31T16:06:12;35.10;28.90
42147;DHT22;27815;43.410;11.852;2023-07-31T16:10:16;35.00;29.10
42147;DHT22;27815;43.410;11.852;2023-07-31T16:14:18;34.90;29.60
42147;DHT22;27815;43.410;11.852;2023-07-31T16:18:21;35.00;29.80
42147;DHT22;27815;43.410;11.852;2023-07-31T16:22:24;35.50;29.70
42147;DHT22;27815;43.410;11.852;2023-07-31T16:26:27;36.50;28.80
42147;DHT22;27815;43.410;11.852;2023-07-31T16:30:33;36.60;28.80
42147;DHT22;27815;43.410;11.852;2023-07-31T16:34:36;36.80;28.90
42147;DHT22;27815;43.410;11.852;2023-07-31T16:38:39;36.60;29.00
42147;DHT22;27815;43.410;11.852;2023-07-31T16:42:45;36.20;29.30
42147;DHT22;27815;43.410;11.852;2023-07-31T16:46:48;35.70;29.70
42147;DHT22;27815;43.410;11.852;2023-07-31T16:50:51;35.40;30.10
42147;DHT22;27815;43.410;11.852;2023-07-31T16:54:54;35.00;30.50
42147;DHT22;27815;43.410;11.852;2023-07-31T16:58:57;34.70;30.90
42147;DHT22;27815;43.410;11.852;2023-07-31T17:03:06;34.60;31.00
42147;DHT22;27815;43.410;11.852;2023-07-31T17:07:11;34.70;31.00
42147;DHT22;27815;43.410;11.852;2023-07-31T17:11:15;36.30;30.10
42147;DHT22;27815;43.410;11.852;2023-07-31T17:15:19;38.00;28.70
42147;DHT22;27815;43.410;11.852;2023-07-31T17:19:22;39.10;27.90
42147;DHT22;27815;43.410;11.852;2023-07-31T17:23:25;39.70;27.40
42147;DHT22;27815;43.410;11.852;2023-07-31T17:27:28;39.70;26.70
42147;DHT22;27815;43.410;11.852;2023-07-31T17:31:32;39.70;26.60
42147;DHT22;27815;43.410;11.852;2023-07-31T17:35:37;39.70;26.50
42147;DHT22;27815;43.410;11.852;2023-07-31T17:39:40;39.70;26.60
42147;DHT22;27815;43.410;11.852;2023-07-31T17:43:44;39.80;26.50
42147;DHT22;27815;43.410;11.852;2023-07-31T17:47:48;39.40;26.40
42147;DHT22;27815;43.410;11.852;2023-07-31T17:51:51;39.30;26.70
42147;DHT22;27815;43.410;11.852;2023-07-31T17:55:53;38.40;27.30
42147;DHT22;27815;43.410;11.852;2023-07-31T17:59:56;37.40;28.10
42147;DHT22;27815;43.410;11.852;2023-07-31T18:03:59;36.50;28.70
42147;DHT22;27815;43.410;11.852;2023-07-31T18:08:04;35.70;29.30
42147;DHT22;27815;43.410;11.852;2023-07-31T18:12:08;35.20;30.00
42147;DHT22;27815;43.410;11.852;2023-07-31T18:16:11;35.00;30.30
42147;DHT22;27815;43.410;11.852;2023-07-31T18:20:16;34.80;30.60
42147;DHT22;27815;43.410;11.852;2023-07-31T18:24:19;34.50;31.00
42147;DHT22;27815;43.410;11.852;2023-07-31T18:28:22;34.20;31.30
42147;DHT22;27815;43.410;11.852;2023-07-31T18:32:25;33.90;31.80
42147;DHT22;27815;43.410;11.852;2023-07-31T18:36:28;33.40;32.30
42147;DHT22;27815;43.410;11.852;2023-07-31T18:40:33;33.00;32.80
42147;DHT22;27815;43.410;11.852;2023-07-31T18:44:37;32.40;33.60
42147;DHT22;27815;43.410;11.852;2023-07-31T18:48:40;31.70;34.30
42147;DHT22;27815;43.410;11.852;2023-07-31T18:52:43;31.20;35.00
42147;DHT22;27815;43.410;11.852;2023-07-31T18:56:46;30.90;35.40
42147;DHT22;27815;43.410;11.852;2023-07-31T19:00:49;30.50;35.70
42147;DHT22;27815;43.410;11.852;2023-07-31T19:04:51;30.30;35.90
42147;DHT22;27815;43.410;11.852;2023-07-31T19:08:55;30.10;36.20
42147;DHT22;27815;43.410;11.852;2023-07-31T19:12:59;30.00;36.50
42147;DHT22;27815;43.410;11.852;2023-07-31T19:17:01;29.80;36.80
42147;DHT22;27815;43.410;11.852;2023-07-31T19:21:04;29.70;37.00
42147;DHT22;27815;43.410;11.852;2023-07-31T19:25:08;29.60;37.10
42147;DHT22;27815;43.410;11.852;2023-07-31T19:29:14;29.50;37.30
42147;DHT22;27815;43.410;11.852;2023-07-31T19:33:18;29.50;37.40
42147;DHT22;27815;43.410;11.852;2023-07-31T19:37:27;29.40;37.70
42147;DHT22;27815;43.410;11.852;2023-07-31T19:41:31;29.40;37.80
42147;DHT22;27815;43.410;11.852;2023-07-31T19:45:34;29.30;37.90
42147;DHT22;27815;43.410;11.852;2023-07-31T19:49:39;29.20;37.90
42147;DHT22;27815;43.410;11.852;2023-07-31T19:53:43;29.10;38.10
42147;DHT22;27815;43.410;11.852;2023-07-31T19:57:52;29.00;38.30
42147;DHT22;27815;43.410;11.852;2023-07-31T20:01:58;29.00;38.40
42147;DHT22;27815;43.410;11.852;2023-07-31T20:06:05;29.00;38.40
42147;DHT22;27815;43.410;11.852;2023-07-31T20:10:10;28.90;38.60
42147;DHT22;27815;43.410;11.852;2023-07-31T20:14:36;28.70;38.70
42147;DHT22;27815;43.410;11.852;2023-07-31T20:19:01;28.60;38.80
42147;DHT22;27815;43.410;11.852;2023-07-31T20:23:13;28.50;38.80
42147;DHT22;27815;43.410;11.852;2023-07-31T20:27:44;28.50;39.10
42147;DHT22;27815;43.410;11.852;2023-07-31T20:31:50;28.40;39.30
42147;DHT22;27815;43.410;11.852;2023-07-31T20:36:10;28.30;39.40
42147;DHT22;27815;43.410;11.852;2023-07-31T20:40:21;28.20;39.60
42147;DHT22;27815;43.410;11.852;2023-07-31T20:44:25;28.10;39.70
42147;DHT22;27815;43.410;11.852;2023-07-31T20:48:30;28.10;39.80
42147;DHT22;27815;43.410;11.852;2023-07-31T20:52:39;28.00;39.90
42147;DHT22;27815;43.410;11.852;2023-07-31T20:56:42;28.00;40.00
42147;DHT22;27815;43.410;11.852;2023-07-31T21:00:49;28.00;40.10
42147;DHT22;27815;43.410;11.852;2023-07-31T21:05:08;27.90;40.30
42147;DHT22;27815;43.410;11.852;2023-07-31T21:09:16;27.90;40.30
42147;DHT22;27815;43.410;11.852;2023-07-31T21:13:29;27.70;40.50
42147;DHT22;27815;43.410;11.852;2023-07-31T21:17:39;27.80;40.70
42147;DHT22;27815;43.410;11.852;2023-07-31T21:21:43;27.70;40.70
42147;DHT22;27815;43.410;11.852;2023-07-31T21:25:48;27.70;40.70
42147;DHT22;27815;43.410;11.852;2023-07-31T21:29:52;27.60;40.80
42147;DHT22;27815;43.410;11.852;2023-07-31T21:33:55;27.60;40.90
42147;DHT22;27815;43.410;11.852;2023-07-31T21:38:04;27.60;40.90
42147;DHT22;27815;43.410;11.852;2023-07-31T21:42:08;27.50;41.10
42147;DHT22;27815;43.410;11.852;2023-07-31T21:46:11;27.50;41.10
42147;DHT22;27815;43.410;11.852;2023-07-31T21:50:15;27.50;41.30
42147;DHT22;27815;43.410;11.852;2023-07-31T21:54:18;27.40;41.40
42147;DHT22;27815;43.410;11.852;2023-07-31T21:58:21;27.40;41.40
42147;DHT22;27815;43.410;11.852;2023-07-31T22:02:25;27.30;41.60
42147;DHT22;27815;43.410;11.852;2023-07-31T22:06:28;27.30;41.80
42147;DHT22;27815;43.410;11.852;2023-07-31T22:10:31;27.20;41.90
42147;DHT22;27815;43.410;11.852;2023-07-31T22:14:34;27.20;42.10
42147;DHT22;27815;43.410;11.852;2023-07-31T22:18:37;27.10;42.20
42147;DHT22;27815;43.410;11.852;2023-07-31T22:22:40;27.00;42.40
42147;DHT22;27815;43.410;11.852;2023-07-31T22:26:43;27.00;42.60
42147;DHT22;27815;43.410;11.852;2023-07-31T22:30:46;26.90;42.80
42147;DHT22;27815;43.410;11.852;2023-07-31T22:34:49;26.90;42.90
42147;DHT22;27815;43.410;11.852;2023-07-31T22:38:52;26.80;43.10
42147;DHT22;27815;43.410;11.852;2023-07-31T22:42:55;26.80;43.30
42147;DHT22;27815;43.410;11.852;2023-07-31T22:46:59;26.70;43.50
42147;DHT22;27815;43.410;11.852;2023-07-31T22:51:02;26.60;43.80
42147;DHT22;27815;43.410;11.852;2023-07-31T22:55:05;26.50;44.00
42147;DHT22;27815;43.410;11.852;2023-07-31T22:59:08;26.50;44.10
42147;DHT22;27815;43.410;11.852;2023-07-31T23:03:11;26.40;44.30
42147;DHT22;27815;43.410;11.852;2023-07-31T23:07:14;26.40;44.40
42147;DHT22;27815;43.410;11.852;2023-07-31T23:11:17;26.30;44.60
42147;DHT22;27815;43.410;11.852;2023-07-31T23:15:20;26.30;44.80
42147;DHT22;27815;43.410;11.852;2023-07-31T23:19:23;26.20;45.00
42147;DHT22;27815;43.410;11.852;2023-07-31T23:23:26;26.20;45.10
42147;DHT22;27815;43.410;11.852;2023-07-31T23:27:29;26.20;45.20
42147;DHT22;27815;43.410;11.852;2023-07-31T23:31:33;26.10;45.40
42147;DHT22;27815;43.410;11.852;2023-07-31T23:35:35;26.10;45.60
42147;DHT22;27815;43.410;11.852;2023-07-31T23:39:38;26.00;45.70
42147;DHT22;27815;43.410;11.852;2023-07-31T23:43:42;26.00;45.90
42147;DHT22;27815;43.410;11.852;2023-07-31T23:47:48;26.00;46.10
42147;DHT22;27815;43.410;11.852;2023-07-31T23:51:52;25.90;46.20
42147;DHT22;27815;43.410;11.852;2023-07-31T23:55:55;25.80;46.40
42147;DHT22;27815;43.410;11.852;2023-07-31T23:59:58;25.80;46.60
